Unionville Center, Ohio
Current Conditions -  °F | °C
As of 8:33 AM on Wednesday 22 Oct 2014 (Local Time) from KMRT Reporting Station
Overcast Overcast  
Wind Chill: 38°   Ceiling: 800
Heat Index: 42°   Visibility: 7mi
Dew Point: 39°   Wind: 8mph
Humidity: 87%   Direction: 10°N
Pressure: 30.25"   Gusts: NA
Location:  40.14°N, 83.34°W
Report Text: KMRT 221233Z AUTO 01007KT 7SM BKN008 OVC027 06/04 A3025 RMK AO2 T00580038
Loading
Personal Weather Stations






























Interactive Weather Map
Tropical Storm Tracking
New forecast layout! Learn more

10-Day Weather Forecast

Advertisements
Track Severe Weather on mobile